ADDS METAR Data INFO
IDs: Format: Raw Decoded Include TAF

Data at: 0852 UTC 19 Nov 2017

KEYW 190753Z AUTO 01004KT 10SM CLR 22/21 A2995 RMK AO2 SLP141 T02170206